createdAt,value
2017-08-15T00:01:16.928Z,5.20
2017-08-15T00:03:44.225Z,5.67
2017-08-15T00:06:11.486Z,4.20
2017-08-15T00:08:38.747Z,8.30
2017-08-15T00:11:06.039Z,8.80
2017-08-15T00:13:33.300Z,6.43
2017-08-15T00:16:00.583Z,5.80
2017-08-15T00:18:27.855Z,5.00
2017-08-15T00:20:55.170Z,5.83
2017-08-15T00:23:22.435Z,5.83
2017-08-15T00:25:49.820Z,6.53
2017-08-15T00:28:17.107Z,10.97
2017-08-15T00:30:44.369Z,5.17
2017-08-15T00:33:11.672Z,7.33
2017-08-15T00:35:38.933Z,7.83
2017-08-15T00:38:06.186Z,8.37
2017-08-15T00:40:33.545Z,4.47
2017-08-15T00:43:00.800Z,6.83
2017-08-15T00:45:28.069Z,6.13
2017-08-15T00:47:55.354Z,7.50
2017-08-15T00:50:22.657Z,11.27
2017-08-15T00:52:49.932Z,5.47
2017-08-15T00:55:17.271Z,4.50
2017-08-15T00:57:44.566Z,7.03
2017-08-15T01:00:11.828Z,10.53
2017-08-15T01:02:39.119Z,5.73
2017-08-15T01:05:06.379Z,5.83
2017-08-15T01:07:33.738Z,5.10
2017-08-15T01:10:01.028Z,7.63
2017-08-15T01:12:28.291Z,7.10
2017-08-15T01:14:55.579Z,4.77
2017-08-15T01:17:22.841Z,4.50
2017-08-15T01:19:50.110Z,5.10
2017-08-15T01:22:17.471Z,5.23
2017-08-15T01:24:44.727Z,5.90
2017-08-15T01:27:11.988Z,6.97
2017-08-15T01:29:39.286Z,4.67
2017-08-15T01:32:06.590Z,13.40
2017-08-15T01:34:34.703Z,4.70
2017-08-15T01:37:02.060Z,6.93
2017-08-15T01:39:29.317Z,6.20
2017-08-15T01:41:56.579Z,6.77
2017-08-15T01:44:23.862Z,4.50
2017-08-15T01:46:51.123Z,5.20
2017-08-15T01:49:18.485Z,5.20
2017-08-15T01:51:45.743Z,6.90
2017-08-15T01:54:13.003Z,9.23
2017-08-15T01:56:40.291Z,5.50
2017-08-15T01:59:07.556Z,4.87
2017-08-15T02:01:34.953Z,11.80
2017-08-15T02:04:02.214Z,9.50
2017-08-15T02:06:29.568Z,6.10
2017-08-15T02:08:56.855Z,5.37
2017-08-15T02:11:24.120Z,6.40
2017-08-15T02:13:51.411Z,4.67
2017-08-15T02:16:18.675Z,7.63
2017-08-15T02:18:45.968Z,6.80
2017-08-15T02:21:13.226Z,9.73
2017-08-15T02:23:40.543Z,7.00
2017-08-15T02:26:07.832Z,8.87
2017-08-15T02:28:35.095Z,11.53
2017-08-15T02:31:02.390Z,8.00
2017-08-15T02:33:29.691Z,7.27
2017-08-15T02:35:57.012Z,8.53
2017-08-15T02:38:24.364Z,7.40
2017-08-15T02:40:51.722Z,7.70
2017-08-15T02:43:18.977Z,5.93
2017-08-15T02:45:46.331Z,6.33
2017-08-15T02:48:13.586Z,7.50
2017-08-15T02:50:40.886Z,5.10
2017-08-15T02:53:08.193Z,5.77
2017-08-15T02:55:35.451Z,12.87
2017-08-15T02:58:02.738Z,5.90
2017-08-15T03:00:29.995Z,6.80
2017-08-15T03:02:57.299Z,5.30
2017-08-15T03:05:24.560Z,5.27
2017-08-15T03:07:51.818Z,5.67
2017-08-15T03:10:19.109Z,6.20
2017-08-15T03:12:46.401Z,7.23
2017-08-15T03:15:13.675Z,4.83
2017-08-15T03:17:40.931Z,6.80
2017-08-15T03:20:08.228Z,8.10
2017-08-15T03:22:35.516Z,5.00
2017-08-15T03:25:02.797Z,7.27
2017-08-15T03:27:30.147Z,7.37
2017-08-15T03:29:57.407Z,8.00
2017-08-15T03:32:24.663Z,6.23
2017-08-15T03:34:51.956Z,6.60
2017-08-15T03:37:19.247Z,4.50
2017-08-15T03:39:46.496Z,7.93
2017-08-15T03:42:13.783Z,7.43
2017-08-15T03:44:41.127Z,6.37
2017-08-15T03:47:08.426Z,5.83
2017-08-15T03:49:35.685Z,9.30
2017-08-15T03:52:02.942Z,10.40
2017-08-15T03:54:30.232Z,7.20
2017-08-15T03:56:57.522Z,5.67
2017-08-15T03:59:24.790Z,6.20
2017-08-15T04:01:52.103Z,6.17
2017-08-15T04:04:19.361Z,6.17
2017-08-15T04:06:46.711Z,5.10
2017-08-15T04:09:14.067Z,7.53
2017-08-15T04:11:41.422Z,5.00
2017-08-15T04:14:08.682Z,7.67
2017-08-15T04:16:36.031Z,6.73
2017-08-15T04:19:03.316Z,5.00
2017-08-15T04:21:30.566Z,7.57
2017-08-15T04:23:57.859Z,7.70
2017-08-15T04:26:25.139Z,6.07
2017-08-15T04:28:52.401Z,8.77
2017-08-15T04:31:19.695Z,5.67
2017-08-15T04:33:46.994Z,5.87
2017-08-15T04:36:14.259Z,5.73
2017-08-15T04:38:41.600Z,6.50
2017-08-15T04:41:08.894Z,5.23
2017-08-15T04:43:36.161Z,5.83
2017-08-15T04:46:03.675Z,8.80
2017-08-15T04:48:30.954Z,6.90
2017-08-15T04:50:58.223Z,11.83
2017-08-15T04:53:25.529Z,5.70
2017-08-15T04:55:52.819Z,7.03
2017-08-15T04:58:20.162Z,5.20
2017-08-15T05:00:47.418Z,6.50
2017-08-15T05:03:14.728Z,5.50
2017-08-15T05:05:41.991Z,12.13
2017-08-15T05:08:09.262Z,5.10
2017-08-15T05:10:36.554Z,7.10
2017-08-15T05:13:03.842Z,10.90
2017-08-15T05:15:31.111Z,6.90
2017-08-15T05:17:58.402Z,5.60
2017-08-15T05:20:25.664Z,6.33
2017-08-15T05:22:52.923Z,6.33
2017-08-15T05:25:20.214Z,7.20
2017-08-15T05:27:47.665Z,4.67
2017-08-15T05:30:14.939Z,5.17
2017-08-15T05:32:42.194Z,11.60
2017-08-15T05:35:09.483Z,6.80
2017-08-15T05:37:36.734Z,6.90
2017-08-15T05:40:04.025Z,7.40
2017-08-15T05:42:31.282Z,7.20
2017-08-15T05:44:58.607Z,9.53
2017-08-15T05:47:25.902Z,12.10
2017-08-15T05:49:53.192Z,5.80
2017-08-15T05:52:20.479Z,6.07
2017-08-15T05:54:47.745Z,14.03
2017-08-15T05:57:15.083Z,8.63
2017-08-15T05:59:42.343Z,10.30
2017-08-15T06:02:09.822Z,6.00
2017-08-15T06:04:37.152Z,6.20
2017-08-15T06:07:04.890Z,7.90
2017-08-15T06:09:32.235Z,7.20
2017-08-15T06:11:59.582Z,6.70
2017-08-15T06:14:28.669Z,6.00
2017-08-15T06:16:56.408Z,5.83
2017-08-15T06:19:23.701Z,5.77
2017-08-15T06:21:50.971Z,5.13
2017-08-15T06:24:18.275Z,8.03
2017-08-15T06:26:45.530Z,6.50
2017-08-15T06:29:12.793Z,5.37
2017-08-15T06:31:40.178Z,5.83
2017-08-15T06:34:07.443Z,4.50
2017-08-15T06:36:34.786Z,5.03
2017-08-15T06:39:02.049Z,5.60
2017-08-15T06:41:29.308Z,5.50
2017-08-15T06:43:56.599Z,5.57
2017-08-15T06:46:23.853Z,7.17
2017-08-15T06:48:51.139Z,8.30
2017-08-15T06:51:18.426Z,5.20
2017-08-15T06:53:45.767Z,9.57
2017-08-15T06:56:13.130Z,7.90
2017-08-15T06:58:40.386Z,4.70
2017-08-15T07:01:07.675Z,5.13
2017-08-15T07:03:34.991Z,6.63
2017-08-15T07:06:02.247Z,6.33
2017-08-15T07:08:29.511Z,4.33
2017-08-15T07:10:56.852Z,6.03
2017-08-15T07:13:24.102Z,6.30
2017-08-15T07:15:51.362Z,5.50
2017-08-15T07:18:18.772Z,5.50
2017-08-15T07:20:46.027Z,4.87
2017-08-15T07:23:13.289Z,4.57
2017-08-15T07:25:40.680Z,5.20
2017-08-15T07:28:07.938Z,4.60
2017-08-15T07:30:35.199Z,4.63
2017-08-15T07:33:02.684Z,6.30
2017-08-15T07:35:29.999Z,5.60
2017-08-15T07:37:57.288Z,6.50
2017-08-15T07:40:24.539Z,6.93
2017-08-15T07:42:51.837Z,6.47
2017-08-15T07:45:19.101Z,10.80
2017-08-15T07:47:46.367Z,6.67
2017-08-15T07:50:13.650Z,7.97
2017-08-15T07:52:40.971Z,5.13
2017-08-15T07:55:08.242Z,8.13
2017-08-15T07:57:35.530Z,5.90
2017-08-15T08:00:02.827Z,6.33
2017-08-15T08:02:30.083Z,6.30
2017-08-15T08:04:57.387Z,5.33
2017-08-15T08:07:24.704Z,4.93
2017-08-15T08:09:52.055Z,4.57
2017-08-15T08:12:19.343Z,4.90
2017-08-15T08:14:46.611Z,11.70
2017-08-15T08:17:13.903Z,9.03
2017-08-15T08:19:41.193Z,5.97
2017-08-15T08:22:08.459Z,8.63
2017-08-15T08:24:35.755Z,5.50
2017-08-15T08:27:03.023Z,5.63
2017-08-15T08:29:30.270Z,5.30
2017-08-15T08:31:57.555Z,5.87
2017-08-15T08:34:24.818Z,5.60
2017-08-15T08:36:52.151Z,7.13
2017-08-15T08:39:19.410Z,5.60
2017-08-15T08:41:46.672Z,8.53
2017-08-15T08:44:13.964Z,7.90
2017-08-15T08:46:41.271Z,5.67
2017-08-15T08:49:08.567Z,4.20
2017-08-15T08:51:35.832Z,3.80
2017-08-15T08:54:03.101Z,7.00
2017-08-15T08:56:30.491Z,5.13
2017-08-15T08:58:57.750Z,5.10
2017-08-15T09:01:25.096Z,5.67
2017-08-15T09:03:52.378Z,7.17
2017-08-15T09:06:19.675Z,5.63
2017-08-15T09:08:46.939Z,6.73
2017-08-15T09:11:14.254Z,5.10
2017-08-15T09:13:41.521Z,5.50
2017-08-15T09:16:08.823Z,6.67
2017-08-15T09:18:36.135Z,11.20
2017-08-15T09:21:03.427Z,6.40
2017-08-15T09:23:30.768Z,5.53
2017-08-15T09:25:58.038Z,7.47
2017-08-15T09:28:25.316Z,5.97
2017-08-15T09:30:52.639Z,6.47
2017-08-15T09:33:19.907Z,7.03
2017-08-15T09:35:47.173Z,7.00
2017-08-15T09:38:14.495Z,5.10
2017-08-15T09:40:41.803Z,9.10
2017-08-15T09:43:09.082Z,5.03
2017-08-15T09:45:36.377Z,8.10
2017-08-15T09:48:03.659Z,5.43
2017-08-15T09:50:30.926Z,8.30
2017-08-15T09:52:58.246Z,5.60
2017-08-15T09:55:25.512Z,7.27
2017-08-15T09:57:52.816Z,5.43
2017-08-15T10:00:20.097Z,12.73
2017-08-15T10:02:47.380Z,6.03
2017-08-15T10:05:14.682Z,5.93
2017-08-15T10:07:42.007Z,10.00
2017-08-15T10:10:09.280Z,6.77
2017-08-15T10:12:36.546Z,4.77
2017-08-15T10:15:03.867Z,5.43
2017-08-15T10:17:31.154Z,5.57
2017-08-15T10:19:58.462Z,11.57
2017-08-15T10:22:25.742Z,8.87
2017-08-15T10:24:53.015Z,6.13
2017-08-15T10:27:20.317Z,7.90
2017-08-15T10:29:47.587Z,3.70
2017-08-15T10:32:14.870Z,5.80
2017-08-15T10:34:42.243Z,5.07
2017-08-15T10:37:09.511Z,4.40
2017-08-15T10:39:36.775Z,6.93
2017-08-15T10:42:04.094Z,6.73
2017-08-15T10:44:31.359Z,5.40
2017-08-15T10:46:58.663Z,4.70
2017-08-15T10:49:25.952Z,9.73
2017-08-15T10:51:53.197Z,6.13
2017-08-15T10:54:20.507Z,5.87
2017-08-15T10:56:47.776Z,6.73
2017-08-15T10:59:15.075Z,5.50
2017-08-15T11:01:42.355Z,5.63
2017-08-15T11:04:09.623Z,8.00
2017-08-15T11:06:36.935Z,4.60
2017-08-15T11:09:04.229Z,6.60
2017-08-15T11:11:31.478Z,5.20
2017-08-15T11:13:58.787Z,4.43
2017-08-15T11:16:26.045Z,6.33
2017-08-15T11:18:53.359Z,5.70
2017-08-15T11:21:20.622Z,4.77
2017-08-15T11:23:47.879Z,4.20
2017-08-15T11:26:15.178Z,6.83
2017-08-15T11:28:42.447Z,6.20
2017-08-15T11:31:09.727Z,3.90
2017-08-15T11:33:37.011Z,4.40
2017-08-15T11:36:04.311Z,5.67
2017-08-15T11:38:31.583Z,4.47
2017-08-15T11:40:58.881Z,4.43
2017-08-15T11:43:26.184Z,5.00
2017-08-15T11:45:53.458Z,5.23
2017-08-15T11:48:20.723Z,8.30
2017-08-15T11:50:48.020Z,8.43
2017-08-15T11:53:15.325Z,6.03
2017-08-15T11:55:42.588Z,5.47
2017-08-15T11:58:09.859Z,4.73
2017-08-15T17:35:42.505Z,11.97
2017-08-15T17:38:09.758Z,12.37
2017-08-15T17:40:37.084Z,14.27
2017-08-15T17:43:04.382Z,13.47
2017-08-15T17:45:31.634Z,7.83
2017-08-15T17:47:58.934Z,8.43
2017-08-15T17:50:26.254Z,10.00
2017-08-15T17:52:53.516Z,14.40
2017-08-15T17:55:20.821Z,9.27
2017-08-15T17:57:48.130Z,10.53
2017-08-15T18:00:15.412Z,9.43
2017-08-15T18:02:42.689Z,10.10
2017-08-15T18:05:10.002Z,12.23
2017-08-15T18:07:37.330Z,11.27
2017-08-15T18:10:04.597Z,10.07
2017-08-15T18:12:31.867Z,9.90
2017-08-15T18:14:59.219Z,13.80
2017-08-15T18:17:26.471Z,10.60
2017-08-15T18:19:53.746Z,13.73
2017-08-15T18:22:21.054Z,13.53
2017-08-15T18:24:48.339Z,12.93
2017-08-15T18:27:15.673Z,13.03
2017-08-15T18:29:42.976Z,10.73
2017-08-15T18:32:10.256Z,11.43
2017-08-15T18:34:37.576Z,13.40
2017-08-15T18:37:04.894Z,15.53
2017-08-15T18:39:32.229Z,12.50
2017-08-15T18:41:59.500Z,13.50
2017-08-15T18:44:26.858Z,12.43
2017-08-15T18:46:54.158Z,19.50
2017-08-15T18:49:21.472Z,16.57
2017-08-15T18:51:48.747Z,12.43
2017-08-15T18:54:16.023Z,11.10
2017-08-15T18:56:43.326Z,14.37
2017-08-15T18:59:10.615Z,13.90
2017-08-15T19:01:37.928Z,13.43
2017-08-15T19:04:05.228Z,13.60
2017-08-15T19:06:32.528Z,17.30
2017-08-15T19:08:59.912Z,11.20
2017-08-15T19:11:27.201Z,12.80
2017-08-15T19:13:55.479Z,16.07
2017-08-15T19:16:22.816Z,10.13
2017-08-15T19:18:50.135Z,12.80
2017-08-15T19:21:17.427Z,11.87
2017-08-15T19:23:44.688Z,10.67
2017-08-15T19:26:12.007Z,13.17
2017-08-15T19:28:39.280Z,10.77
2017-08-15T19:31:06.603Z,12.93
2017-08-15T19:33:33.876Z,22.70
2017-08-15T19:36:01.172Z,17.57
2017-08-15T19:38:28.534Z,13.40
2017-08-15T19:40:55.828Z,16.60
2017-08-15T19:43:23.139Z,15.00
2017-08-15T19:45:50.425Z,17.23
2017-08-15T19:48:17.737Z,10.50
2017-08-15T19:50:45.003Z,12.40
2017-08-15T19:53:12.674Z,39.23
2017-08-15T19:55:39.935Z,9.93
2017-08-15T19:58:07.200Z,11.10
2017-08-15T20:00:34.513Z,13.47
2017-08-15T20:03:01.819Z,19.27
2017-08-15T20:05:29.123Z,15.83
2017-08-15T20:07:56.392Z,11.43
2017-08-15T20:10:23.682Z,17.00
2017-08-15T20:12:50.993Z,10.50
2017-08-15T20:15:18.294Z,11.63
2017-08-15T20:17:45.558Z,11.00
2017-08-15T20:20:12.835Z,16.13
2017-08-15T20:22:40.276Z,12.63
2017-08-15T20:25:07.569Z,11.97
2017-08-15T20:27:34.884Z,17.73
2017-08-15T20:30:02.167Z,16.40
2017-08-15T20:32:29.459Z,15.60
2017-08-15T20:34:56.763Z,13.53
2017-08-15T20:37:24.082Z,15.50
2017-08-15T20:39:51.426Z,15.13
2017-08-15T20:42:18.690Z,18.00
2017-08-15T20:44:46.013Z,8.87
2017-08-15T20:47:13.306Z,15.13
2017-08-15T20:49:40.638Z,11.90
2017-08-15T20:52:07.926Z,12.07
2017-08-15T20:54:35.199Z,14.10
2017-08-15T20:57:02.513Z,11.83
2017-08-15T20:59:29.799Z,14.80
2017-08-15T21:01:57.133Z,9.67
2017-08-15T21:04:24.407Z,15.00
2017-08-15T21:06:51.677Z,10.43
2017-08-15T21:09:19.028Z,11.90
2017-08-15T21:11:46.306Z,14.60
2017-08-15T21:14:13.587Z,10.43
2017-08-15T21:16:40.930Z,17.73
2017-08-15T21:19:08.220Z,21.53
2017-08-15T21:21:35.543Z,15.17
2017-08-15T21:24:02.823Z,16.93
2017-08-15T21:26:30.145Z,14.93
2017-08-15T21:28:57.423Z,11.73
2017-08-15T21:31:24.708Z,10.43
2017-08-15T21:33:52.008Z,16.63
2017-08-15T21:36:19.326Z,12.50
2017-08-15T21:38:46.640Z,12.83
2017-08-15T21:41:13.991Z,13.33
2017-08-15T21:43:41.260Z,12.87
2017-08-15T21:46:08.582Z,12.80
2017-08-15T21:48:35.951Z,11.80
2017-08-15T21:51:03.260Z,10.80
2017-08-15T21:53:30.581Z,11.27
2017-08-15T21:55:57.896Z,29.60
2017-08-15T21:58:25.196Z,15.03
2017-08-15T22:00:58.305Z,13.33
2017-08-15T22:03:25.649Z,14.37
2017-08-15T22:05:52.919Z,16.00
2017-08-15T22:08:20.211Z,12.87
2017-08-15T22:10:47.495Z,12.37
2017-08-15T22:13:15.332Z,10.53
2017-08-15T22:15:42.729Z,9.13
2017-08-15T22:18:09.971Z,20.80
2017-08-15T22:20:37.310Z,17.97
2017-08-15T22:23:04.575Z,16.97
2017-08-15T22:25:31.900Z,12.43
2017-08-15T22:27:59.223Z,11.73
2017-08-15T22:30:26.502Z,14.63
2017-08-15T22:32:53.904Z,13.70
2017-08-15T22:35:21.188Z,13.07
2017-08-15T22:37:48.486Z,11.77
2017-08-15T22:40:15.833Z,13.90
2017-08-15T22:42:43.131Z,18.60
2017-08-15T22:45:10.402Z,12.27
2017-08-15T22:47:37.724Z,13.43
2017-08-15T22:50:05.003Z,17.50
2017-08-15T22:52:32.316Z,13.43
2017-08-15T22:54:59.624Z,11.60
2017-08-15T22:57:26.929Z,13.07
2017-08-15T22:59:54.284Z,15.70
2017-08-15T23:02:21.550Z,17.23
2017-08-15T23:04:48.855Z,13.83
2017-08-15T23:07:16.149Z,13.37
2017-08-15T23:09:43.470Z,13.30
2017-08-15T23:12:10.792Z,10.60
2017-08-15T23:14:38.085Z,15.53
2017-08-15T23:17:05.394Z,14.30
2017-08-15T23:19:32.718Z,13.70
2017-08-15T23:22:00.052Z,15.50
2017-08-15T23:24:27.311Z,12.67
2017-08-15T23:26:54.602Z,15.57
2017-08-15T23:29:21.912Z,23.03
2017-08-15T23:31:49.179Z,10.57
2017-08-15T23:34:16.474Z,13.33
2017-08-15T23:36:43.785Z,10.50
2017-08-15T23:39:11.051Z,12.73
2017-08-15T23:41:38.828Z,12.97
2017-08-15T23:44:06.111Z,14.27
2017-08-15T23:46:33.387Z,11.57
2017-08-15T23:49:00.650Z,19.73
2017-08-15T23:51:27.935Z,9.90
2017-08-15T23:53:55.208Z,11.33
2017-08-15T23:56:22.503Z,10.17
2017-08-15T23:58:49.770Z,10.73
